sensor_id;sensor_type;location;lat;lon;timestamp;P1;durP1;ratioP1;P2;durP2;ratioP2
8895;SDS011;4484;48.928;10.066;2023-08-30T00:01:12;10.63;;;9.63;;
8895;SDS011;4484;48.928;10.066;2023-08-30T00:03:39;13.63;;;12.33;;
8895;SDS011;4484;48.928;10.066;2023-08-30T00:06:06;12.27;;;11.00;;
8895;SDS011;4484;48.928;10.066;2023-08-30T00:08:33;13.63;;;12.33;;
8895;SDS011;4484;48.928;10.066;2023-08-30T00:11:01;11.50;;;10.40;;
8895;SDS011;4484;48.928;10.066;2023-08-30T00:13:30;12.73;;;11.37;;
8895;SDS011;4484;48.928;10.066;2023-08-30T00:15:58;12.30;;;11.10;;
8895;SDS011;4484;48.928;10.066;2023-08-30T00:18:25;10.93;;;9.83;;
8895;SDS011;4484;48.928;10.066;2023-08-30T00:20:52;13.67;;;12.23;;
8895;SDS011;4484;48.928;10.066;2023-08-30T00:23:19;14.23;;;12.83;;
8895;SDS011;4484;48.928;10.066;2023-08-30T00:25:46;14.43;;;10.97;;
8895;SDS011;4484;48.928;10.066;2023-08-30T00:28:13;10.40;;;9.40;;
8895;SDS011;4484;48.928;10.066;2023-08-30T00:30:40;11.37;;;10.37;;
8895;SDS011;4484;48.928;10.066;2023-08-30T00:33:07;11.07;;;9.97;;
8895;SDS011;4484;48.928;10.066;2023-08-30T00:35:34;13.00;;;11.57;;
8895;SDS011;4484;48.928;10.066;2023-08-30T00:38:01;10.70;;;9.50;;
8895;SDS011;4484;48.928;10.066;2023-08-30T00:40:28;14.10;;;12.43;;
8895;SDS011;4484;48.928;10.066;2023-08-30T00:42:56;14.97;;;12.90;;
8895;SDS011;4484;48.928;10.066;2023-08-30T00:45:23;13.47;;;12.17;;
8895;SDS011;4484;48.928;10.066;2023-08-30T00:47:50;11.00;;;10.00;;
8895;SDS011;4484;48.928;10.066;2023-08-30T00:50:17;13.80;;;12.40;;
8895;SDS011;4484;48.928;10.066;2023-08-30T00:52:44;12.83;;;11.03;;
8895;SDS011;4484;48.928;10.066;2023-08-30T00:55:11;10.87;;;9.87;;
8895;SDS011;4484;48.928;10.066;2023-08-30T00:57:39;13.00;;;11.70;;
8895;SDS011;4484;48.928;10.066;2023-08-30T01:00:06;10.50;;;9.53;;
8895;SDS011;4484;48.928;10.066;2023-08-30T01:02:35;13.23;;;11.83;;
8895;SDS011;4484;48.928;10.066;2023-08-30T01:05:02;10.10;;;9.20;;
8895;SDS011;4484;48.928;10.066;2023-08-30T01:07:30;10.90;;;9.90;;
8895;SDS011;4484;48.928;10.066;2023-08-30T01:09:57;12.20;;;11.07;;
8895;SDS011;4484;48.928;10.066;2023-08-30T01:12:29;13.60;;;12.40;;
8895;SDS011;4484;48.928;10.066;2023-08-30T01:15:18;12.37;;;11.17;;
8895;SDS011;4484;48.928;10.066;2023-08-30T01:17:49;13.23;;;12.00;;
8895;SDS011;4484;48.928;10.066;2023-08-30T01:20:18;11.10;;;10.00;;
8895;SDS011;4484;48.928;10.066;2023-08-30T01:25:37;10.67;;;9.63;;
8895;SDS011;4484;48.928;10.066;2023-08-30T01:28:22;9.57;;;8.67;;
8895;SDS011;4484;48.928;10.066;2023-08-30T01:30:51;14.03;;;12.10;;
8895;SDS011;4484;48.928;10.066;2023-08-30T01:33:25;14.63;;;12.33;;
8895;SDS011;4484;48.928;10.066;2023-08-30T01:35:55;12.40;;;11.20;;
8895;SDS011;4484;48.928;10.066;2023-08-30T01:38:25;12.57;;;11.03;;
8895;SDS011;4484;48.928;10.066;2023-08-30T01:40:54;12.20;;;11.00;;
8895;SDS011;4484;48.928;10.066;2023-08-30T01:43:23;13.97;;;12.57;;
8895;SDS011;4484;48.928;10.066;2023-08-30T01:45:53;14.07;;;12.67;;
8895;SDS011;4484;48.928;10.066;2023-08-30T01:48:22;13.33;;;11.30;;
8895;SDS011;4484;48.928;10.066;2023-08-30T01:50:50;13.13;;;11.83;;
8895;SDS011;4484;48.928;10.066;2023-08-30T01:53:17;13.60;;;12.20;;
8895;SDS011;4484;48.928;10.066;2023-08-30T01:55:45;12.90;;;11.57;;
8895;SDS011;4484;48.928;10.066;2023-08-30T01:58:12;13.17;;;11.90;;
8895;SDS011;4484;48.928;10.066;2023-08-30T02:00:39;13.27;;;11.97;;
8895;SDS011;4484;48.928;10.066;2023-08-30T02:03:10;13.80;;;12.40;;
8895;SDS011;4484;48.928;10.066;2023-08-30T02:05:39;11.93;;;10.67;;
8895;SDS011;4484;48.928;10.066;2023-08-30T02:08:35;13.73;;;12.33;;
8895;SDS011;4484;48.928;10.066;2023-08-30T02:11:26;13.10;;;11.77;;
8895;SDS011;4484;48.928;10.066;2023-08-30T02:13:54;12.50;;;11.23;;
8895;SDS011;4484;48.928;10.066;2023-08-30T02:16:23;13.10;;;11.80;;
8895;SDS011;4484;48.928;10.066;2023-08-30T02:18:53;9.67;;;8.77;;
8895;SDS011;4484;48.928;10.066;2023-08-30T02:21:21;11.93;;;10.73;;
8895;SDS011;4484;48.928;10.066;2023-08-30T02:23:51;12.53;;;11.23;;
8895;SDS011;4484;48.928;10.066;2023-08-30T02:26:19;13.00;;;11.50;;
8895;SDS011;4484;48.928;10.066;2023-08-30T02:28:46;14.33;;;12.93;;
8895;SDS011;4484;48.928;10.066;2023-08-30T02:31:13;13.00;;;11.70;;
8895;SDS011;4484;48.928;10.066;2023-08-30T02:33:40;12.50;;;11.30;;
8895;SDS011;4484;48.928;10.066;2023-08-30T02:36:07;12.10;;;10.90;;
8895;SDS011;4484;48.928;10.066;2023-08-30T02:38:34;10.17;;;9.20;;
8895;SDS011;4484;48.928;10.066;2023-08-30T02:41:01;10.90;;;9.90;;
8895;SDS011;4484;48.928;10.066;2023-08-30T02:43:28;12.87;;;11.67;;
8895;SDS011;4484;48.928;10.066;2023-08-30T02:45:55;13.93;;;12.53;;
8895;SDS011;4484;48.928;10.066;2023-08-30T02:48:22;12.83;;;11.63;;
8895;SDS011;4484;48.928;10.066;2023-08-30T02:50:49;16.03;;;14.37;;
8895;SDS011;4484;48.928;10.066;2023-08-30T02:53:16;14.30;;;12.77;;
8895;SDS011;4484;48.928;10.066;2023-08-30T02:55:43;13.03;;;11.80;;
8895;SDS011;4484;48.928;10.066;2023-08-30T02:58:10;13.00;;;11.67;;
8895;SDS011;4484;48.928;10.066;2023-08-30T03:00:38;13.33;;;12.03;;
8895;SDS011;4484;48.928;10.066;2023-08-30T03:03:06;14.87;;;13.27;;
8895;SDS011;4484;48.928;10.066;2023-08-30T03:05:33;14.80;;;13.33;;
8895;SDS011;4484;48.928;10.066;2023-08-30T03:08:02;12.63;;;11.40;;
8895;SDS011;4484;48.928;10.066;2023-08-30T03:10:29;13.03;;;11.80;;
8895;SDS011;4484;48.928;10.066;2023-08-30T03:12:56;12.20;;;11.00;;
8895;SDS011;4484;48.928;10.066;2023-08-30T03:15:24;11.23;;;10.13;;
8895;SDS011;4484;48.928;10.066;2023-08-30T03:17:51;12.50;;;10.80;;
8895;SDS011;4484;48.928;10.066;2023-08-30T03:20:18;14.50;;;13.00;;
8895;SDS011;4484;48.928;10.066;2023-08-30T03:22:45;14.10;;;12.70;;
8895;SDS011;4484;48.928;10.066;2023-08-30T03:25:12;15.07;;;13.60;;
8895;SDS011;4484;48.928;10.066;2023-08-30T03:27:39;14.87;;;13.27;;
8895;SDS011;4484;48.928;10.066;2023-08-30T03:30:06;12.53;;;11.23;;
8895;SDS011;4484;48.928;10.066;2023-08-30T03:32:34;11.80;;;10.60;;
8895;SDS011;4484;48.928;10.066;2023-08-30T03:35:01;15.27;;;13.77;;
8895;SDS011;4484;48.928;10.066;2023-08-30T03:37:29;13.90;;;12.13;;
8895;SDS011;4484;48.928;10.066;2023-08-30T03:39:56;16.83;;;14.30;;
8895;SDS011;4484;48.928;10.066;2023-08-30T03:42:23;13.80;;;12.50;;
8895;SDS011;4484;48.928;10.066;2023-08-30T03:44:50;13.93;;;12.53;;
8895;SDS011;4484;48.928;10.066;2023-08-30T03:47:17;16.30;;;14.70;;
8895;SDS011;4484;48.928;10.066;2023-08-30T03:49:44;13.57;;;12.20;;
8895;SDS011;4484;48.928;10.066;2023-08-30T03:52:12;10.90;;;9.80;;
8895;SDS011;4484;48.928;10.066;2023-08-30T03:54:40;11.27;;;10.17;;
8895;SDS011;4484;48.928;10.066;2023-08-30T03:57:07;11.57;;;10.47;;
8895;SDS011;4484;48.928;10.066;2023-08-30T03:59:34;12.27;;;11.07;;
8895;SDS011;4484;48.928;10.066;2023-08-30T04:02:00;11.47;;;10.23;;
8895;SDS011;4484;48.928;10.066;2023-08-30T04:04:28;11.43;;;10.43;;
8895;SDS011;4484;48.928;10.066;2023-08-30T04:06:54;13.73;;;12.33;;
8895;SDS011;4484;48.928;10.066;2023-08-30T04:09:21;15.57;;;13.37;;
8895;SDS011;4484;48.928;10.066;2023-08-30T04:11:48;12.90;;;11.57;;
8895;SDS011;4484;48.928;10.066;2023-08-30T04:14:15;13.30;;;11.90;;
8895;SDS011;4484;48.928;10.066;2023-08-30T04:16:41;11.47;;;10.27;;
8895;SDS011;4484;48.928;10.066;2023-08-30T04:19:08;11.73;;;10.63;;
8895;SDS011;4484;48.928;10.066;2023-08-30T04:21:35;12.00;;;10.80;;
8895;SDS011;4484;48.928;10.066;2023-08-30T04:24:02;11.90;;;10.70;;
8895;SDS011;4484;48.928;10.066;2023-08-30T04:26:30;14.80;;;13.20;;
8895;SDS011;4484;48.928;10.066;2023-08-30T04:28:56;12.17;;;10.60;;
8895;SDS011;4484;48.928;10.066;2023-08-30T04:31:23;13.67;;;12.13;;
8895;SDS011;4484;48.928;10.066;2023-08-30T04:33:52;14.87;;;13.27;;
8895;SDS011;4484;48.928;10.066;2023-08-30T04:36:21;13.77;;;12.47;;
8895;SDS011;4484;48.928;10.066;2023-08-30T04:38:48;13.43;;;12.10;;
8895;SDS011;4484;48.928;10.066;2023-08-30T04:41:28;14.00;;;12.37;;
8895;SDS011;4484;48.928;10.066;2023-08-30T04:43:55;12.73;;;11.47;;
8895;SDS011;4484;48.928;10.066;2023-08-30T04:46:22;12.03;;;10.83;;
8895;SDS011;4484;48.928;10.066;2023-08-30T04:48:48;15.80;;;13.00;;
8895;SDS011;4484;48.928;10.066;2023-08-30T04:51:15;12.33;;;11.10;;
8895;SDS011;4484;48.928;10.066;2023-08-30T04:53:42;11.33;;;10.13;;
8895;SDS011;4484;48.928;10.066;2023-08-30T04:56:11;12.53;;;10.90;;
8895;SDS011;4484;48.928;10.066;2023-08-30T04:58:39;14.13;;;12.57;;
8895;SDS011;4484;48.928;10.066;2023-08-30T05:01:08;15.50;;;12.10;;
8895;SDS011;4484;48.928;10.066;2023-08-30T05:03:37;13.13;;;11.87;;
8895;SDS011;4484;48.928;10.066;2023-08-30T05:06:07;11.87;;;10.73;;
8895;SDS011;4484;48.928;10.066;2023-08-30T05:08:34;13.93;;;12.27;;
8895;SDS011;4484;48.928;10.066;2023-08-30T05:11:01;12.70;;;11.40;;
8895;SDS011;4484;48.928;10.066;2023-08-30T05:13:32;13.47;;;11.97;;
8895;SDS011;4484;48.928;10.066;2023-08-30T05:15:59;11.97;;;10.77;;
8895;SDS011;4484;48.928;10.066;2023-08-30T05:18:27;13.77;;;12.13;;
8895;SDS011;4484;48.928;10.066;2023-08-30T05:20:53;13.03;;;11.73;;
8895;SDS011;4484;48.928;10.066;2023-08-30T05:23:20;12.63;;;11.33;;
8895;SDS011;4484;48.928;10.066;2023-08-30T05:25:48;13.73;;;12.33;;
8895;SDS011;4484;48.928;10.066;2023-08-30T05:28:16;13.87;;;11.37;;
8895;SDS011;4484;48.928;10.066;2023-08-30T05:30:43;11.37;;;10.13;;
8895;SDS011;4484;48.928;10.066;2023-08-30T05:33:22;10.37;;;9.37;;
8895;SDS011;4484;48.928;10.066;2023-08-30T05:36:16;10.63;;;9.13;;
8895;SDS011;4484;48.928;10.066;2023-08-30T05:38:55;11.77;;;9.90;;
8895;SDS011;4484;48.928;10.066;2023-08-30T05:41:31;9.00;;;8.07;;
8895;SDS011;4484;48.928;10.066;2023-08-30T05:43:58;9.20;;;8.30;;
8895;SDS011;4484;48.928;10.066;2023-08-30T05:46:25;8.93;;;8.03;;
8895;SDS011;4484;48.928;10.066;2023-08-30T05:48:52;9.53;;;8.63;;
8895;SDS011;4484;48.928;10.066;2023-08-30T05:51:22;9.83;;;8.87;;
8895;SDS011;4484;48.928;10.066;2023-08-30T05:53:49;9.70;;;8.57;;
8895;SDS011;4484;48.928;10.066;2023-08-30T05:56:16;12.57;;;10.73;;
8895;SDS011;4484;48.928;10.066;2023-08-30T05:58:43;13.17;;;11.70;;
8895;SDS011;4484;48.928;10.066;2023-08-30T06:01:10;11.00;;;9.90;;
8895;SDS011;4484;48.928;10.066;2023-08-30T06:03:37;10.00;;;9.00;;
8895;SDS011;4484;48.928;10.066;2023-08-30T06:06:04;11.23;;;8.63;;
8895;SDS011;4484;48.928;10.066;2023-08-30T06:08:31;11.57;;;10.47;;
8895;SDS011;4484;48.928;10.066;2023-08-30T06:10:58;10.87;;;9.47;;
8895;SDS011;4484;48.928;10.066;2023-08-30T06:13:25;9.97;;;8.97;;
8895;SDS011;4484;48.928;10.066;2023-08-30T06:15:52;11.17;;;8.87;;
8895;SDS011;4484;48.928;10.066;2023-08-30T06:18:19;12.37;;;9.27;;
8895;SDS011;4484;48.928;10.066;2023-08-30T06:20:46;9.93;;;9.03;;
8895;SDS011;4484;48.928;10.066;2023-08-30T06:23:14;10.00;;;8.57;;
8895;SDS011;4484;48.928;10.066;2023-08-30T06:25:41;9.87;;;8.97;;
8895;SDS011;4484;48.928;10.066;2023-08-30T06:28:08;11.13;;;8.87;;
8895;SDS011;4484;48.928;10.066;2023-08-30T06:30:36;8.93;;;8.13;;
8895;SDS011;4484;48.928;10.066;2023-08-30T06:33:02;8.70;;;7.90;;
8895;SDS011;4484;48.928;10.066;2023-08-30T06:35:30;9.87;;;7.73;;
8895;SDS011;4484;48.928;10.066;2023-08-30T06:37:57;9.63;;;8.13;;
8895;SDS011;4484;48.928;10.066;2023-08-30T06:40:24;8.77;;;7.87;;
8895;SDS011;4484;48.928;10.066;2023-08-30T06:42:51;9.83;;;8.63;;
8895;SDS011;4484;48.928;10.066;2023-08-30T06:45:18;9.03;;;8.07;;
8895;SDS011;4484;48.928;10.066;2023-08-30T06:47:45;8.57;;;7.77;;
8895;SDS011;4484;48.928;10.066;2023-08-30T06:50:14;9.70;;;8.63;;
8895;SDS011;4484;48.928;10.066;2023-08-30T06:52:40;9.83;;;8.80;;
8895;SDS011;4484;48.928;10.066;2023-08-30T06:55:07;7.93;;;7.23;;
8895;SDS011;4484;48.928;10.066;2023-08-30T06:57:34;9.67;;;8.67;;
8895;SDS011;4484;48.928;10.066;2023-08-30T07:00:01;9.97;;;8.97;;
8895;SDS011;4484;48.928;10.066;2023-08-30T07:02:37;9.70;;;8.67;;
8895;SDS011;4484;48.928;10.066;2023-08-30T07:05:04;11.43;;;8.83;;
8895;SDS011;4484;48.928;10.066;2023-08-30T07:07:31;9.40;;;8.50;;
8895;SDS011;4484;48.928;10.066;2023-08-30T07:09:58;17.00;;;9.17;;
8895;SDS011;4484;48.928;10.066;2023-08-30T07:12:25;10.80;;;7.83;;
8895;SDS011;4484;48.928;10.066;2023-08-30T07:14:52;9.70;;;8.63;;
8895;SDS011;4484;48.928;10.066;2023-08-30T07:17:19;13.77;;;8.67;;
8895;SDS011;4484;48.928;10.066;2023-08-30T07:19:46;7.83;;;7.13;;
8895;SDS011;4484;48.928;10.066;2023-08-30T07:22:13;8.60;;;7.80;;
8895;SDS011;4484;48.928;10.066;2023-08-30T07:24:43;9.33;;;6.67;;
8895;SDS011;4484;48.928;10.066;2023-08-30T07:27:11;7.37;;;6.67;;
8895;SDS011;4484;48.928;10.066;2023-08-30T07:29:40;7.10;;;6.47;;
8895;SDS011;4484;48.928;10.066;2023-08-30T07:32:07;7.50;;;6.80;;
8895;SDS011;4484;48.928;10.066;2023-08-30T07:34:34;7.97;;;6.30;;
8895;SDS011;4484;48.928;10.066;2023-08-30T07:37:01;7.77;;;6.73;;
8895;SDS011;4484;48.928;10.066;2023-08-30T07:39:28;7.37;;;6.67;;
8895;SDS011;4484;48.928;10.066;2023-08-30T07:41:55;6.50;;;5.90;;
8895;SDS011;4484;48.928;10.066;2023-08-30T07:44:22;6.83;;;6.17;;
8895;SDS011;4484;48.928;10.066;2023-08-30T07:46:49;7.57;;;6.60;;
8895;SDS011;4484;48.928;10.066;2023-08-30T07:49:15;6.60;;;5.40;;
8895;SDS011;4484;48.928;10.066;2023-08-30T07:51:42;7.57;;;5.23;;
8895;SDS011;4484;48.928;10.066;2023-08-30T07:54:09;5.80;;;5.30;;
8895;SDS011;4484;48.928;10.066;2023-08-30T07:56:36;7.00;;;5.57;;
8895;SDS011;4484;48.928;10.066;2023-08-30T07:59:03;7.23;;;5.07;;
8895;SDS011;4484;48.928;10.066;2023-08-30T08:01:30;5.20;;;4.50;;
8895;SDS011;4484;48.928;10.066;2023-08-30T08:03:56;6.00;;;5.40;;
8895;SDS011;4484;48.928;10.066;2023-08-30T08:06:33;6.70;;;4.73;;
8895;SDS011;4484;48.928;10.066;2023-08-30T08:09:03;5.20;;;4.80;;
8895;SDS011;4484;48.928;10.066;2023-08-30T08:11:31;6.63;;;6.00;;
8895;SDS011;4484;48.928;10.066;2023-08-30T08:13:58;5.73;;;4.80;;
8895;SDS011;4484;48.928;10.066;2023-08-30T08:16:25;5.73;;;4.00;;
8895;SDS011;4484;48.928;10.066;2023-08-30T08:18:52;4.30;;;4.00;;
8895;SDS011;4484;48.928;10.066;2023-08-30T08:21:21;4.33;;;3.73;;
8895;SDS011;4484;48.928;10.066;2023-08-30T08:23:47;5.20;;;4.63;;
8895;SDS011;4484;48.928;10.066;2023-08-30T08:26:16;5.40;;;4.50;;
8895;SDS011;4484;48.928;10.066;2023-08-30T08:28:43;6.20;;;4.10;;
8895;SDS011;4484;48.928;10.066;2023-08-30T08:31:09;4.57;;;4.17;;
8895;SDS011;4484;48.928;10.066;2023-08-30T08:33:37;5.30;;;4.50;;
8895;SDS011;4484;48.928;10.066;2023-08-30T08:36:04;3.70;;;3.40;;
8895;SDS011;4484;48.928;10.066;2023-08-30T08:38:31;4.70;;;4.20;;
8895;SDS011;4484;48.928;10.066;2023-08-30T08:41:04;3.67;;;3.27;;
8895;SDS011;4484;48.928;10.066;2023-08-30T08:43:32;4.13;;;3.50;;
8895;SDS011;4484;48.928;10.066;2023-08-30T08:46:01;2.90;;;2.70;;
8895;SDS011;4484;48.928;10.066;2023-08-30T08:48:29;6.20;;;3.53;;
8895;SDS011;4484;48.928;10.066;2023-08-30T08:51:00;4.23;;;3.30;;
8895;SDS011;4484;48.928;10.066;2023-08-30T08:53:27;4.03;;;3.73;;
8895;SDS011;4484;48.928;10.066;2023-08-30T08:55:54;4.90;;;4.00;;
8895;SDS011;4484;48.928;10.066;2023-08-30T08:58:24;5.17;;;3.80;;
8895;SDS011;4484;48.928;10.066;2023-08-30T09:00:52;5.23;;;4.07;;
8895;SDS011;4484;48.928;10.066;2023-08-30T09:03:19;4.37;;;3.97;;
8895;SDS011;4484;48.928;10.066;2023-08-30T09:05:48;5.57;;;3.80;;
8895;SDS011;4484;48.928;10.066;2023-08-30T09:08:15;3.60;;;3.30;;
8895;SDS011;4484;48.928;10.066;2023-08-30T09:10:43;3.90;;;3.53;;
8895;SDS011;4484;48.928;10.066;2023-08-30T09:13:10;4.33;;;3.93;;
8895;SDS011;4484;48.928;10.066;2023-08-30T09:15:37;4.40;;;3.97;;
8895;SDS011;4484;48.928;10.066;2023-08-30T09:18:04;4.90;;;3.87;;
8895;SDS011;4484;48.928;10.066;2023-08-30T09:20:40;3.47;;;3.23;;
8895;SDS011;4484;48.928;10.066;2023-08-30T09:23:16;4.87;;;3.70;;
8895;SDS011;4484;48.928;10.066;2023-08-30T09:25:46;4.13;;;3.57;;
8895;SDS011;4484;48.928;10.066;2023-08-30T09:28:20;3.80;;;3.40;;
8895;SDS011;4484;48.928;10.066;2023-08-30T09:30:50;3.27;;;2.97;;
8895;SDS011;4484;48.928;10.066;2023-08-30T09:33:21;2.97;;;2.77;;
8895;SDS011;4484;48.928;10.066;2023-08-30T09:35:59;4.40;;;3.37;;
8895;SDS011;4484;48.928;10.066;2023-08-30T09:38:26;4.33;;;3.93;;
8895;SDS011;4484;48.928;10.066;2023-08-30T09:41:03;3.53;;;3.23;;
8895;SDS011;4484;48.928;10.066;2023-08-30T09:43:31;8.30;;;3.23;;
8895;SDS011;4484;48.928;10.066;2023-08-30T09:46:03;4.03;;;3.60;;
8895;SDS011;4484;48.928;10.066;2023-08-30T09:48:31;4.10;;;3.50;;
8895;SDS011;4484;48.928;10.066;2023-08-30T09:50:59;3.17;;;2.97;;
8895;SDS011;4484;48.928;10.066;2023-08-30T09:53:29;3.27;;;3.03;;
8895;SDS011;4484;48.928;10.066;2023-08-30T09:56:11;3.77;;;3.47;;
8895;SDS011;4484;48.928;10.066;2023-08-30T09:58:40;4.38;;;3.97;;
8895;SDS011;4484;48.928;10.066;2023-08-30T10:01:07;4.57;;;3.60;;
8895;SDS011;4484;48.928;10.066;2023-08-30T10:03:35;3.07;;;2.77;;
8895;SDS011;4484;48.928;10.066;2023-08-30T10:06:03;4.00;;;3.70;;
8895;SDS011;4484;48.928;10.066;2023-08-30T10:08:32;3.90;;;3.60;;
8895;SDS011;4484;48.928;10.066;2023-08-30T10:11:00;4.33;;;3.77;;
8895;SDS011;4484;48.928;10.066;2023-08-30T10:13:28;4.15;;;3.75;;
8895;SDS011;4484;48.928;10.066;2023-08-30T10:15:58;4.18;;;3.05;;
8895;SDS011;4484;48.928;10.066;2023-08-30T10:18:31;3.83;;;3.40;;
8895;SDS011;4484;48.928;10.066;2023-08-30T10:20:59;3.22;;;2.92;;
8895;SDS011;4484;48.928;10.066;2023-08-30T10:23:26;3.05;;;2.75;;
8895;SDS011;4484;48.928;10.066;2023-08-30T10:25:54;2.90;;;2.55;;
8895;SDS011;4484;48.928;10.066;2023-08-30T10:28:22;2.97;;;2.78;;
8895;SDS011;4484;48.928;10.066;2023-08-30T10:30:50;4.03;;;2.95;;
8895;SDS011;4484;48.928;10.066;2023-08-30T10:33:18;2.88;;;2.33;;
8895;SDS011;4484;48.928;10.066;2023-08-30T10:35:50;3.17;;;2.30;;
8895;SDS011;4484;48.928;10.066;2023-08-30T10:38:24;4.25;;;2.17;;
8895;SDS011;4484;48.928;10.066;2023-08-30T10:40:53;2.47;;;2.28;;
8895;SDS011;4484;48.928;10.066;2023-08-30T10:43:28;3.15;;;2.55;;
8895;SDS011;4484;48.928;10.066;2023-08-30T10:46:06;3.30;;;2.22;;
8895;SDS011;4484;48.928;10.066;2023-08-30T10:48:34;3.53;;;2.30;;
8895;SDS011;4484;48.928;10.066;2023-08-30T10:51:02;2.67;;;2.28;;
8895;SDS011;4484;48.928;10.066;2023-08-30T10:53:30;2.40;;;2.20;;
8895;SDS011;4484;48.928;10.066;2023-08-30T10:56:07;2.85;;;2.30;;
8895;SDS011;4484;48.928;10.066;2023-08-30T10:58:40;2.05;;;1.95;;
8895;SDS011;4484;48.928;10.066;2023-08-30T11:01:10;2.13;;;1.90;;
8895;SDS011;4484;48.928;10.066;2023-08-30T11:03:40;2.30;;;2.10;;
8895;SDS011;4484;48.928;10.066;2023-08-30T11:06:10;2.20;;;2.00;;
8895;SDS011;4484;48.928;10.066;2023-08-30T11:08:40;1.67;;;1.35;;
8895;SDS011;4484;48.928;10.066;2023-08-30T11:11:08;2.08;;;1.88;;
8895;SDS011;4484;48.928;10.066;2023-08-30T11:13:37;1.88;;;1.73;;
8895;SDS011;4484;48.928;10.066;2023-08-30T11:16:04;2.35;;;1.30;;
8895;SDS011;4484;48.928;10.066;2023-08-30T11:18:36;3.00;;;1.40;;
8895;SDS011;4484;48.928;10.066;2023-08-30T11:21:05;1.65;;;1.45;;
8895;SDS011;4484;48.928;10.066;2023-08-30T11:23:32;3.92;;;1.90;;
8895;SDS011;4484;48.928;10.066;2023-08-30T11:26:00;2.58;;;1.63;;
8895;SDS011;4484;48.928;10.066;2023-08-30T11:28:30;3.38;;;1.60;;
8895;SDS011;4484;48.928;10.066;2023-08-30T11:30:57;2.35;;;1.58;;
8895;SDS011;4484;48.928;10.066;2023-08-30T11:33:23;1.35;;;1.17;;
8895;SDS011;4484;48.928;10.066;2023-08-30T11:35:51;1.77;;;1.08;;
8895;SDS011;4484;48.928;10.066;2023-08-30T11:38:18;1.90;;;1.50;;
8895;SDS011;4484;48.928;10.066;2023-08-30T11:40:48;1.52;;;1.30;;
8895;SDS011;4484;48.928;10.066;2023-08-30T11:43:15;1.45;;;1.20;;
8895;SDS011;4484;48.928;10.066;2023-08-30T11:45:42;2.50;;;1.33;;
8895;SDS011;4484;48.928;10.066;2023-08-30T11:48:09;1.55;;;1.20;;
8895;SDS011;4484;48.928;10.066;2023-08-30T11:50:36;1.08;;;0.95;;
8895;SDS011;4484;48.928;10.066;2023-08-30T11:53:14;0.90;;;0.90;;
8895;SDS011;4484;48.928;10.066;2023-08-30T11:55:41;1.00;;;0.90;;
8895;SDS011;4484;48.928;10.066;2023-08-30T11:58:08;3.08;;;0.82;;
8895;SDS011;4484;48.928;10.066;2023-08-30T12:00:35;1.00;;;0.80;;
8895;SDS011;4484;48.928;10.066;2023-08-30T12:03:05;0.90;;;0.90;;
8895;SDS011;4484;48.928;10.066;2023-08-30T12:05:32;1.83;;;1.05;;
8895;SDS011;4484;48.928;10.066;2023-08-30T12:08:01;1.90;;;0.90;;
8895;SDS011;4484;48.928;10.066;2023-08-30T12:10:29;1.83;;;1.05;;
8895;SDS011;4484;48.928;10.066;2023-08-30T12:12:56;2.75;;;1.30;;
8895;SDS011;4484;48.928;10.066;2023-08-30T12:15:23;2.78;;;1.10;;
8895;SDS011;4484;48.928;10.066;2023-08-30T12:17:53;0.82;;;0.77;;
8895;SDS011;4484;48.928;10.066;2023-08-30T12:20:20;1.10;;;1.00;;
8895;SDS011;4484;48.928;10.066;2023-08-30T12:22:49;2.25;;;0.90;;
8895;SDS011;4484;48.928;10.066;2023-08-30T12:27:46;1.48;;;0.80;;
8895;SDS011;4484;48.928;10.066;2023-08-30T12:30:13;1.20;;;0.80;;
8895;SDS011;4484;48.928;10.066;2023-08-30T12:32:43;1.30;;;1.00;;
8895;SDS011;4484;48.928;10.066;2023-08-30T12:35:11;0.70;;;0.70;;
8895;SDS011;4484;48.928;10.066;2023-08-30T12:37:38;1.58;;;0.70;;
8895;SDS011;4484;48.928;10.066;2023-08-30T12:40:05;2.63;;;0.70;;
8895;SDS011;4484;48.928;10.066;2023-08-30T12:42:33;3.65;;;0.85;;
8895;SDS011;4484;48.928;10.066;2023-08-30T12:45:00;1.80;;;1.00;;
8895;SDS011;4484;48.928;10.066;2023-08-30T12:47:27;1.10;;;1.00;;
8895;SDS011;4484;48.928;10.066;2023-08-30T12:49:55;2.33;;;0.90;;
8895;SDS011;4484;48.928;10.066;2023-08-30T12:52:22;1.10;;;0.88;;
8895;SDS011;4484;48.928;10.066;2023-08-30T12:54:49;1.58;;;1.00;;
8895;SDS011;4484;48.928;10.066;2023-08-30T12:57:16;0.68;;;0.65;;
8895;SDS011;4484;48.928;10.066;2023-08-30T12:59:43;2.03;;;0.73;;
8895;SDS011;4484;48.928;10.066;2023-08-30T13:02:10;0.80;;;0.80;;
8895;SDS011;4484;48.928;10.066;2023-08-30T13:04:36;1.33;;;1.00;;
8895;SDS011;4484;48.928;10.066;2023-08-30T13:07:04;1.60;;;0.90;;
8895;SDS011;4484;48.928;10.066;2023-08-30T13:09:31;1.45;;;0.70;;
8895;SDS011;4484;48.928;10.066;2023-08-30T13:11:59;2.15;;;0.80;;
8895;SDS011;4484;48.928;10.066;2023-08-30T13:14:25;1.02;;;0.93;;
8895;SDS011;4484;48.928;10.066;2023-08-30T13:16:52;1.10;;;0.90;;
8895;SDS011;4484;48.928;10.066;2023-08-30T13:19:19;0.80;;;0.80;;
8895;SDS011;4484;48.928;10.066;2023-08-30T13:21:46;1.67;;;0.90;;
8895;SDS011;4484;48.928;10.066;2023-08-30T13:24:13;1.25;;;1.10;;
8895;SDS011;4484;48.928;10.066;2023-08-30T13:26:40;2.25;;;1.15;;
8895;SDS011;4484;48.928;10.066;2023-08-30T13:29:07;1.00;;;0.80;;
8895;SDS011;4484;48.928;10.066;2023-08-30T13:31:34;1.33;;;0.90;;
8895;SDS011;4484;48.928;10.066;2023-08-30T13:34:01;2.20;;;1.00;;
8895;SDS011;4484;48.928;10.066;2023-08-30T13:36:27;1.20;;;0.82;;
8895;SDS011;4484;48.928;10.066;2023-08-30T13:38:58;2.63;;;0.95;;
8895;SDS011;4484;48.928;10.066;2023-08-30T13:41:24;1.58;;;0.88;;
8895;SDS011;4484;48.928;10.066;2023-08-30T13:43:51;1.42;;;0.98;;
8895;SDS011;4484;48.928;10.066;2023-08-30T13:46:21;1.45;;;0.88;;
8895;SDS011;4484;48.928;10.066;2023-08-30T13:48:48;1.85;;;0.90;;
8895;SDS011;4484;48.928;10.066;2023-08-30T13:51:21;1.42;;;1.00;;
8895;SDS011;4484;48.928;10.066;2023-08-30T13:53:52;1.15;;;1.05;;
8895;SDS011;4484;48.928;10.066;2023-08-30T13:56:19;0.82;;;0.70;;
8895;SDS011;4484;48.928;10.066;2023-08-30T13:58:46;1.45;;;0.90;;
8895;SDS011;4484;48.928;10.066;2023-08-30T14:01:13;1.13;;;0.73;;
8895;SDS011;4484;48.928;10.066;2023-08-30T14:03:40;2.47;;;0.85;;
8895;SDS011;4484;48.928;10.066;2023-08-30T14:06:07;1.52;;;0.80;;
8895;SDS011;4484;48.928;10.066;2023-08-30T14:08:35;0.90;;;0.85;;
8895;SDS011;4484;48.928;10.066;2023-08-30T14:11:02;1.42;;;0.90;;
8895;SDS011;4484;48.928;10.066;2023-08-30T14:13:30;1.10;;;0.82;;
8895;SDS011;4484;48.928;10.066;2023-08-30T14:16:01;0.82;;;0.77;;
8895;SDS011;4484;48.928;10.066;2023-08-30T14:18:29;1.08;;;0.85;;
8895;SDS011;4484;48.928;10.066;2023-08-30T14:21:00;1.05;;;0.98;;
8895;SDS011;4484;48.928;10.066;2023-08-30T14:23:28;1.38;;;1.00;;
8895;SDS011;4484;48.928;10.066;2023-08-30T14:26:05;1.17;;;1.08;;
8895;SDS011;4484;48.928;10.066;2023-08-30T14:28:36;2.20;;;0.90;;
8895;SDS011;4484;48.928;10.066;2023-08-30T14:31:06;1.75;;;1.00;;
8895;SDS011;4484;48.928;10.066;2023-08-30T14:33:34;1.40;;;0.90;;
8895;SDS011;4484;48.928;10.066;2023-08-30T14:36:01;1.23;;;0.90;;
8895;SDS011;4484;48.928;10.066;2023-08-30T14:38:29;0.90;;;0.82;;
8895;SDS011;4484;48.928;10.066;2023-08-30T14:40:56;2.65;;;0.80;;
8895;SDS011;4484;48.928;10.066;2023-08-30T14:43:24;2.25;;;1.00;;
8895;SDS011;4484;48.928;10.066;2023-08-30T14:45:51;1.35;;;0.85;;
8895;SDS011;4484;48.928;10.066;2023-08-30T14:48:36;0.90;;;0.90;;
8895;SDS011;4484;48.928;10.066;2023-08-30T14:51:04;1.00;;;0.90;;
8895;SDS011;4484;48.928;10.066;2023-08-30T14:53:31;1.25;;;0.90;;
8895;SDS011;4484;48.928;10.066;2023-08-30T14:55:58;0.93;;;0.90;;
8895;SDS011;4484;48.928;10.066;2023-08-30T14:58:25;0.80;;;0.73;;
8895;SDS011;4484;48.928;10.066;2023-08-30T15:00:52;1.67;;;1.00;;
8895;SDS011;4484;48.928;10.066;2023-08-30T15:03:20;0.90;;;0.90;;